createdAt,value
2023-01-09T00:00:38.145Z,87.63
2023-01-09T00:03:30.353Z,87.49
2023-01-09T00:06:02.773Z,87.53
2023-01-09T00:08:38.265Z,87.51
2023-01-09T00:11:10.975Z,87.54
2023-01-09T00:13:43.319Z,87.55
2023-01-09T00:16:16.536Z,87.66
2023-01-09T00:18:49.337Z,87.65
2023-01-09T00:21:22.187Z,87.60
2023-01-09T00:23:56.278Z,87.77
2023-01-09T00:26:28.459Z,87.97
2023-01-09T00:29:02.393Z,87.98
2023-01-09T00:31:34.612Z,88.00
2023-01-09T00:34:10.581Z,88.14
2023-01-09T00:36:42.926Z,88.00
2023-01-09T00:39:16.459Z,88.13
2023-01-09T00:41:52.896Z,88.15
2023-01-09T00:44:30.602Z,88.21
2023-01-09T00:47:11.047Z,88.16
2023-01-09T00:49:47.519Z,88.24
2023-01-09T00:52:20.456Z,88.39
2023-01-09T00:54:53.243Z,88.49
2023-01-09T00:57:25.843Z,88.55
2023-01-09T00:59:56.331Z,88.59
2023-01-09T01:02:29.090Z,88.70
2023-01-09T01:05:29.883Z,88.73
2023-01-09T01:08:02.193Z,88.82
2023-01-09T01:10:32.793Z,88.83
2023-01-09T01:13:05.281Z,89.02
2023-01-09T01:15:35.934Z,89.02
2023-01-09T01:18:08.132Z,89.03
2023-01-09T01:20:45.394Z,89.08
2023-01-09T01:23:17.484Z,89.12
2023-01-09T01:25:49.249Z,89.01
2023-01-09T01:28:21.282Z,88.98
2023-01-09T01:30:52.201Z,89.09
2023-01-09T01:33:24.260Z,89.13
2023-01-09T01:36:04.616Z,89.10
2023-01-09T01:38:37.213Z,89.03
2023-01-09T01:41:10.098Z,89.04
2023-01-09T01:43:56.750Z,88.94
2023-01-09T01:46:29.272Z,89.03
2023-01-09T01:49:07.769Z,89.16
2023-01-09T01:51:43.919Z,89.19
2023-01-09T01:54:22.557Z,89.20
2023-01-09T01:56:59.784Z,89.30
2023-01-09T01:59:38.336Z,89.23
2023-01-09T02:02:11.827Z,89.17
2023-01-09T02:04:44.019Z,89.21
2023-01-09T02:07:16.769Z,89.07
2023-01-09T02:09:52.971Z,88.98
2023-01-09T02:12:27.175Z,89.02
2023-01-09T02:15:03.855Z,88.87
2023-01-09T02:18:07.071Z,88.70
2023-01-09T02:20:45.683Z,88.61
2023-01-09T02:24:01.778Z,88.60
2023-01-09T02:26:55.959Z,88.87
2023-01-09T02:30:11.482Z,89.11
2023-01-09T02:33:20.026Z,89.32
2023-01-09T02:36:06.099Z,89.50
2023-01-09T02:38:46.110Z,89.68
2023-01-09T02:41:22.775Z,89.69
2023-01-09T02:44:16.004Z,89.67
2023-01-09T02:46:48.484Z,89.74
2023-01-09T02:49:20.870Z,89.80
2023-01-09T02:52:01.922Z,89.76
2023-01-09T02:54:50.627Z,89.68
2023-01-09T02:57:39.967Z,89.62
2023-01-09T03:00:25.239Z,89.60
2023-01-09T03:03:07.491Z,89.62
2023-01-09T03:05:46.197Z,89.63
2023-01-09T03:08:23.134Z,89.82
2023-01-09T03:11:00.546Z,89.73
2023-01-09T03:13:36.990Z,89.74
2023-01-09T03:16:12.524Z,89.75
2023-01-09T03:18:46.504Z,89.71
2023-01-09T03:21:19.879Z,89.68
2023-01-09T03:23:55.041Z,89.52
2023-01-09T03:26:29.253Z,89.46
2023-01-09T03:29:02.466Z,89.39
2023-01-09T03:31:34.651Z,89.32
2023-01-09T03:34:07.132Z,89.22
2023-01-09T03:36:37.520Z,89.17
2023-01-09T03:39:10.679Z,89.14
2023-01-09T03:41:42.964Z,89.14
2023-01-09T03:44:15.276Z,89.25
2023-01-09T03:46:48.042Z,89.50
2023-01-09T03:49:23.171Z,89.68
2023-01-09T03:51:58.229Z,89.85
2023-01-09T03:54:30.691Z,89.86
2023-01-09T03:57:03.159Z,90.03
2023-01-09T03:59:35.650Z,90.15
2023-01-09T04:02:08.980Z,90.27
2023-01-09T04:04:41.756Z,90.34
2023-01-09T04:07:13.943Z,90.35
2023-01-09T04:09:44.551Z,90.22
2023-01-09T04:12:16.814Z,90.31
2023-01-09T04:14:49.003Z,90.16
2023-01-09T04:17:21.529Z,90.08
2023-01-09T04:19:53.845Z,90.09
2023-01-09T04:22:26.416Z,89.91
2023-01-09T04:24:58.939Z,89.69
2023-01-09T04:27:31.514Z,89.57
2023-01-09T04:30:04.036Z,89.52
2023-01-09T04:32:36.574Z,89.45
2023-01-09T04:35:09.095Z,89.30
2023-01-09T04:37:41.378Z,89.20
2023-01-09T04:40:14.159Z,89.16
2023-01-09T04:42:46.632Z,89.15
2023-01-09T04:45:21.599Z,89.04
2023-01-09T04:47:53.774Z,88.96
2023-01-09T04:50:25.834Z,88.93
2023-01-09T04:52:56.893Z,88.91
2023-01-09T04:55:29.060Z,88.93
2023-01-09T04:57:59.744Z,88.81
2023-01-09T05:00:32.184Z,88.86
2023-01-09T05:03:04.649Z,88.88
2023-01-09T05:05:37.076Z,88.94
2023-01-09T05:08:07.947Z,88.86
2023-01-09T05:10:40.185Z,88.96
2023-01-09T05:13:12.687Z,88.78
2023-01-09T05:15:44.896Z,88.77
2023-01-09T05:18:15.549Z,88.64
2023-01-09T05:20:47.719Z,88.72
2023-01-09T05:23:18.449Z,88.65
2023-01-09T05:25:50.625Z,88.70
2023-01-09T05:28:21.243Z,88.85
2023-01-09T05:30:53.631Z,88.86
2023-01-09T05:33:24.679Z,88.81
2023-01-09T05:35:57.006Z,88.88
2023-01-09T05:38:29.250Z,88.88
2023-01-09T05:40:59.749Z,89.07
2023-01-09T05:43:31.930Z,89.16
2023-01-09T05:46:02.572Z,89.11
2023-01-09T05:48:35.005Z,89.19
2023-01-09T05:51:07.535Z,89.36
2023-01-09T05:53:39.764Z,89.34
2023-01-09T05:56:11.772Z,89.30
2023-01-09T05:58:44.186Z,89.34
2023-01-09T06:01:16.656Z,89.39
2023-01-09T06:03:48.803Z,89.44
2023-01-09T06:06:22.535Z,89.47
2023-01-09T06:08:54.732Z,89.41
2023-01-09T06:11:26.924Z,89.52
2023-01-09T06:13:59.278Z,89.52
2023-01-09T06:16:29.776Z,89.49
2023-01-09T06:19:02.033Z,89.50
2023-01-09T06:21:34.463Z,89.53
2023-01-09T06:24:10.888Z,89.55
2023-01-09T06:26:43.064Z,89.45
2023-01-09T06:29:17.650Z,89.47
2023-01-09T06:31:49.967Z,89.44
2023-01-09T06:34:22.099Z,89.40
2023-01-09T06:36:52.853Z,89.34
2023-01-09T06:39:25.079Z,89.39
2023-01-09T06:41:57.151Z,89.48
2023-01-09T06:44:27.772Z,89.49
2023-01-09T06:47:00.119Z,89.71
2023-01-09T06:49:33.704Z,89.81
2023-01-09T06:52:07.754Z,89.87
2023-01-09T06:54:40.099Z,89.89
2023-01-09T06:57:14.708Z,89.92
2023-01-09T06:59:47.250Z,89.94
2023-01-09T07:02:22.360Z,90.09
2023-01-09T07:04:57.143Z,90.29
2023-01-09T07:07:29.482Z,90.55
2023-01-09T07:10:01.543Z,91.13
2023-01-09T07:12:34.254Z,91.74
2023-01-09T07:15:07.560Z,91.88
2023-01-09T07:17:39.935Z,91.71
2023-01-09T07:20:14.126Z,91.29
2023-01-09T07:22:46.646Z,90.68
2023-01-09T07:25:19.093Z,90.22
2023-01-09T07:27:51.305Z,89.56
2023-01-09T07:30:23.683Z,89.09
2023-01-09T07:32:56.150Z,88.75
2023-01-09T07:35:28.770Z,88.54
2023-01-09T07:38:04.114Z,88.34
2023-01-09T07:40:36.672Z,88.26
2023-01-09T07:43:08.960Z,88.18
2023-01-09T07:45:41.228Z,88.32
2023-01-09T07:48:13.474Z,88.59
2023-01-09T07:50:44.166Z,88.84
2023-01-09T07:53:16.449Z,89.03
2023-01-09T07:55:48.672Z,89.31
2023-01-09T07:58:21.247Z,89.62
2023-01-09T08:00:54.211Z,89.91
2023-01-09T08:03:26.954Z,90.21
2023-01-09T08:05:59.496Z,90.50
2023-01-09T08:08:30.183Z,90.88
2023-01-09T08:11:02.394Z,91.11
2023-01-09T08:13:34.583Z,91.31
2023-01-09T08:16:07.506Z,91.48
2023-01-09T08:19:03.671Z,91.74
2023-01-09T08:21:36.015Z,92.01
2023-01-09T08:24:07.086Z,92.25
2023-01-09T08:26:39.392Z,92.55
2023-01-09T08:29:11.733Z,92.89
2023-01-09T08:31:42.295Z,93.27
2023-01-09T08:34:14.434Z,93.49
2023-01-09T08:36:45.110Z,93.86
2023-01-09T08:39:17.264Z,94.29
2023-01-09T08:42:05.358Z,94.73
2023-01-09T08:44:54.098Z,94.85
2023-01-09T08:47:28.771Z,95.10
2023-01-09T08:50:04.476Z,95.39
2023-01-09T08:52:37.174Z,95.56
2023-01-09T08:55:09.358Z,96.00
2023-01-09T08:57:48.391Z,96.43
2023-01-09T09:00:23.751Z,96.82
2023-01-09T09:03:17.452Z,96.91
2023-01-09T09:05:52.222Z,96.88
2023-01-09T09:08:26.227Z,96.86
2023-01-09T09:11:01.344Z,96.87
2023-01-09T09:13:33.596Z,96.87
2023-01-09T09:16:04.301Z,96.86
2023-01-09T09:18:36.542Z,96.91
2023-01-09T09:21:07.212Z,96.97
2023-01-09T09:23:39.524Z,97.20
2023-01-09T09:26:10.160Z,97.35
2023-01-09T09:28:42.577Z,97.51
2023-01-09T09:31:15.010Z,97.77
2023-01-09T09:33:45.641Z,97.91
2023-01-09T09:36:18.799Z,98.25
2023-01-09T09:38:50.884Z,98.46
2023-01-09T09:41:49.865Z,98.70
2023-01-09T09:44:53.316Z,98.97
2023-01-09T09:47:41.821Z,99.10
2023-01-09T09:50:27.548Z,99.06
2023-01-09T09:53:07.212Z,99.09
2023-01-09T09:55:41.638Z,99.25
2023-01-09T09:58:22.362Z,99.38
2023-01-09T10:00:55.465Z,99.42
2023-01-09T10:03:34.543Z,99.45
2023-01-09T10:06:12.761Z,99.48
2023-01-09T10:08:51.015Z,99.48
2023-01-09T10:11:28.055Z,99.50
2023-01-09T10:14:10.429Z,99.46
2023-01-09T10:17:07.147Z,99.35
2023-01-09T10:19:54.695Z,99.30
2023-01-09T10:22:39.419Z,99.29
2023-01-09T10:25:24.049Z,99.25
2023-01-09T10:28:15.399Z,99.33
2023-01-09T10:30:51.422Z,99.29
2023-01-09T10:33:39.120Z,99.35
2023-01-09T10:36:46.887Z,99.26
2023-01-09T10:39:22.872Z,99.23
2023-01-09T10:41:59.529Z,99.23
2023-01-09T10:44:37.511Z,99.15
2023-01-09T10:47:17.447Z,99.10
2023-01-09T10:49:51.015Z,99.01
2023-01-09T10:52:31.282Z,99.00
2023-01-09T10:55:19.298Z,98.95
2023-01-09T10:57:55.701Z,98.94
2023-01-09T11:00:28.742Z,98.91
2023-01-09T11:03:00.830Z,98.73
2023-01-09T11:05:34.162Z,98.65
2023-01-09T11:08:14.979Z,98.56
2023-01-09T11:10:53.038Z,98.46
2023-01-09T11:13:27.211Z,98.24
2023-01-09T11:16:09.315Z,98.14
2023-01-09T11:18:50.037Z,97.98
2023-01-09T11:21:33.351Z,97.84
2023-01-09T11:24:29.702Z,97.72
2023-01-09T11:27:25.146Z,97.44
2023-01-09T11:30:21.187Z,97.36
2023-01-09T11:32:54.308Z,97.15
2023-01-09T11:35:34.752Z,97.13
2023-01-09T11:38:16.992Z,97.01
2023-01-09T11:40:53.053Z,97.02
2023-01-09T11:43:32.928Z,96.59
2023-01-09T11:46:08.966Z,96.08
2023-01-09T11:48:54.230Z,95.79
2023-01-09T11:51:28.286Z,95.87
2023-01-09T11:54:13.959Z,95.75
2023-01-09T11:56:46.943Z,95.69
2023-01-09T11:59:22.070Z,95.66
2023-01-09T12:02:24.331Z,95.49
2023-01-09T12:05:01.174Z,95.57
2023-01-09T12:08:09.549Z,95.40
2023-01-09T12:10:54.717Z,95.40
2023-01-09T12:13:43.883Z,95.38
2023-01-09T12:16:28.011Z,95.02
2023-01-09T12:19:14.138Z,94.60
2023-01-09T12:21:53.977Z,94.57
2023-01-09T12:24:42.547Z,94.21
2023-01-09T12:27:26.848Z,94.22
2023-01-09T12:30:16.442Z,93.99
2023-01-09T12:33:00.673Z,93.60
2023-01-09T12:35:41.441Z,93.45
2023-01-09T12:38:39.734Z,93.48
2023-01-09T12:41:42.699Z,93.62
2023-01-09T12:44:35.926Z,93.75
2023-01-09T12:47:25.249Z,93.58
2023-01-09T12:50:10.667Z,93.33
2023-01-09T12:52:48.415Z,93.17
2023-01-09T12:55:24.536Z,93.02
2023-01-09T12:58:01.355Z,92.83
2023-01-09T13:00:38.884Z,92.74
2023-01-09T13:03:18.875Z,92.71
2023-01-09T13:05:53.788Z,92.66
2023-01-09T13:08:32.564Z,92.63
2023-01-09T13:11:25.757Z,92.69
2023-01-09T13:14:03.297Z,92.40
2023-01-09T13:16:46.088Z,92.50
2023-01-09T13:19:23.837Z,92.45
2023-01-09T13:21:57.547Z,92.36
2023-01-09T13:24:38.545Z,92.34
2023-01-09T13:27:15.817Z,91.75
2023-01-09T13:29:52.374Z,91.17
2023-01-09T13:32:41.271Z,91.01
2023-01-09T13:35:18.647Z,90.77
2023-01-09T13:37:56.356Z,90.48
2023-01-09T13:40:34.804Z,90.05
2023-01-09T13:43:27.216Z,89.82
2023-01-09T13:45:57.949Z,89.64
2023-01-09T13:48:41.686Z,89.82
2023-01-09T13:52:00.078Z,89.47
2023-01-09T13:55:18.132Z,89.64
2023-01-09T13:58:26.291Z,89.50
2023-01-09T14:01:02.747Z,89.50
2023-01-09T14:03:37.753Z,89.40
2023-01-09T14:06:19.217Z,89.38
2023-01-09T14:09:09.225Z,89.55
2023-01-09T14:11:41.732Z,89.67
2023-01-09T14:14:30.284Z,89.77
2023-01-09T14:17:16.454Z,89.83
2023-01-09T14:19:55.205Z,89.95
2023-01-09T14:22:30.598Z,90.09
2023-01-09T14:25:11.256Z,90.05
2023-01-09T14:28:20.153Z,90.06
2023-01-09T14:31:27.676Z,90.25
2023-01-09T14:34:32.490Z,90.34
2023-01-09T14:37:05.747Z,90.23
2023-01-09T14:39:42.581Z,90.30
2023-01-09T14:42:19.523Z,90.50
2023-01-09T14:44:58.803Z,90.67
2023-01-09T14:47:45.507Z,90.59
2023-01-09T14:50:26.869Z,90.59
2023-01-09T14:53:05.692Z,90.51
2023-01-09T14:55:50.738Z,90.66
2023-01-09T14:58:25.684Z,91.00
2023-01-09T15:01:05.961Z,91.13
2023-01-09T15:03:43.395Z,91.05
2023-01-09T15:06:20.876Z,90.95
2023-01-09T15:09:01.836Z,90.96
2023-01-09T15:11:38.583Z,90.86
2023-01-09T15:14:32.178Z,90.82
2023-01-09T15:17:05.291Z,90.74
2023-01-09T15:19:37.772Z,90.51
2023-01-09T15:22:24.878Z,90.32
2023-01-09T15:24:57.813Z,90.30
2023-01-09T15:27:30.455Z,90.34
2023-01-09T15:30:19.291Z,90.29
2023-01-09T15:32:53.545Z,90.21
2023-01-09T15:35:30.611Z,90.28
2023-01-09T15:38:02.907Z,90.38
2023-01-09T15:40:36.440Z,90.40
2023-01-09T15:43:14.712Z,90.19
2023-01-09T15:45:49.579Z,90.20
2023-01-09T15:48:30.793Z,90.18
2023-01-09T15:51:06.934Z,90.36
2023-01-09T15:53:41.519Z,90.42
2023-01-09T15:56:24.040Z,90.51
2023-01-09T15:58:57.305Z,90.55
2023-01-09T16:01:32.344Z,90.62
2023-01-09T16:04:16.884Z,90.56
2023-01-09T16:06:52.300Z,90.42
2023-01-09T16:09:28.194Z,90.30
2023-01-09T16:12:03.661Z,90.28
2023-01-09T16:14:38.552Z,90.18
2023-01-09T16:17:16.909Z,90.28
2023-01-09T16:19:52.010Z,90.32
2023-01-09T16:22:26.236Z,90.26
2023-01-09T16:25:04.115Z,90.23
2023-01-09T16:27:36.733Z,90.18
2023-01-09T16:30:26.501Z,90.03
2023-01-09T16:32:58.996Z,90.15
2023-01-09T16:35:31.314Z,90.01
2023-01-09T16:38:03.611Z,89.87
2023-01-09T16:40:37.806Z,89.89
2023-01-09T16:43:15.666Z,89.87
2023-01-09T16:45:48.250Z,89.86
2023-01-09T16:48:21.377Z,89.80
2023-01-09T16:50:53.697Z,89.86
2023-01-09T16:53:28.520Z,89.84
2023-01-09T16:56:01.199Z,89.87
2023-01-09T16:58:37.410Z,89.85
2023-01-09T17:01:15.523Z,89.92
2023-01-09T17:03:48.970Z,89.90
2023-01-09T17:06:25.774Z,89.84
2023-01-09T17:08:58.469Z,89.74
2023-01-09T17:11:31.998Z,89.96
2023-01-09T17:14:05.041Z,89.92
2023-01-09T17:16:46.815Z,89.93
2023-01-09T17:19:27.080Z,89.84
2023-01-09T17:21:59.377Z,89.73
2023-01-09T17:24:49.058Z,89.68
2023-01-09T17:27:59.170Z,89.67
2023-01-09T17:30:32.574Z,89.74
2023-01-09T17:33:05.515Z,89.72
2023-01-09T17:35:38.680Z,89.69
2023-01-09T17:38:13.643Z,89.73
2023-01-09T17:40:47.427Z,89.62
2023-01-09T17:43:20.223Z,89.63
2023-01-09T17:45:52.644Z,89.78
2023-01-09T17:48:25.425Z,89.92
2023-01-09T17:50:57.644Z,89.72
2023-01-09T17:53:30.128Z,89.84
2023-01-09T17:56:03.215Z,89.75
2023-01-09T17:58:35.534Z,89.68
2023-01-09T18:01:07.943Z,89.64
2023-01-09T18:03:40.252Z,89.60
2023-01-09T18:06:15.217Z,89.57
2023-01-09T18:08:48.030Z,89.61
2023-01-09T18:11:22.780Z,89.71
2023-01-09T18:13:55.214Z,89.81
2023-01-09T18:16:29.106Z,89.89
2023-01-09T18:19:02.127Z,89.78
2023-01-09T18:21:34.466Z,89.50
2023-01-09T18:24:08.434Z,89.49
2023-01-09T18:26:40.600Z,89.56
2023-01-09T18:29:11.608Z,89.60
2023-01-09T18:31:47.243Z,89.58
2023-01-09T18:34:19.590Z,89.46
2023-01-09T18:36:52.296Z,89.60
2023-01-09T18:39:24.798Z,89.61
2023-01-09T18:41:57.755Z,89.82
2023-01-09T18:44:30.308Z,89.83
2023-01-09T18:49:49.186Z,89.77
2023-01-09T18:52:21.640Z,89.92
2023-01-09T18:54:54.454Z,89.83
2023-01-09T18:57:30.641Z,89.95
2023-01-09T19:00:05.748Z,90.05
2023-01-09T19:02:39.053Z,90.06
2023-01-09T19:05:13.238Z,90.19
2023-01-09T19:07:45.863Z,90.12
2023-01-09T19:10:19.217Z,89.97
2023-01-09T19:12:52.041Z,90.10
2023-01-09T19:15:24.262Z,90.17
2023-01-09T19:17:57.198Z,90.04
2023-01-09T19:20:30.491Z,90.05
2023-01-09T19:23:03.480Z,89.86
2023-01-09T19:25:36.355Z,89.74
2023-01-09T19:28:09.208Z,89.64
2023-01-09T19:30:42.011Z,89.62
2023-01-09T19:33:15.442Z,89.52
2023-01-09T19:35:51.853Z,89.61
2023-01-09T19:38:25.007Z,89.56
2023-01-09T19:40:57.035Z,89.44
2023-01-09T19:43:29.475Z,89.42
2023-01-09T19:46:02.036Z,89.51
2023-01-09T19:48:34.450Z,89.57
2023-01-09T19:51:08.999Z,89.47
2023-01-09T19:53:41.919Z,89.49
2023-01-09T19:56:16.033Z,89.46
2023-01-09T19:58:52.245Z,89.33
2023-01-09T20:01:26.799Z,89.03
2023-01-09T20:04:02.961Z,88.91
2023-01-09T20:06:35.720Z,89.09
2023-01-09T20:09:08.381Z,88.99
2023-01-09T20:11:41.788Z,89.16
2023-01-09T20:14:15.514Z,89.17
2023-01-09T20:16:54.102Z,89.01
2023-01-09T20:19:36.011Z,89.18
2023-01-09T20:22:08.424Z,89.09
2023-01-09T20:24:43.396Z,89.22
2023-01-09T20:27:15.740Z,89.18
2023-01-09T20:29:48.380Z,88.92
2023-01-09T20:32:20.677Z,88.81
2023-01-09T20:34:53.011Z,88.72
2023-01-09T20:37:26.011Z,88.92
2023-01-09T20:40:01.738Z,88.96
2023-01-09T20:42:34.150Z,88.92
2023-01-09T20:45:07.906Z,88.88
2023-01-09T20:47:40.439Z,88.77
2023-01-09T20:50:14.397Z,88.67
2023-01-09T20:52:47.016Z,88.45
2023-01-09T20:55:19.554Z,88.41
2023-01-09T20:57:51.828Z,88.62
2023-01-09T21:00:25.169Z,88.50
2023-01-09T21:02:57.712Z,88.34
2023-01-09T21:05:30.376Z,88.33
2023-01-09T21:08:02.638Z,88.28
2023-01-09T21:10:35.136Z,88.10
2023-01-09T21:13:07.432Z,88.11
2023-01-09T21:15:39.908Z,88.12
2023-01-09T21:18:10.343Z,88.11
2023-01-09T21:20:42.726Z,88.27
2023-01-09T21:23:15.033Z,88.12
2023-01-09T21:25:48.960Z,88.28
2023-01-09T21:28:23.138Z,88.15
2023-01-09T21:30:55.455Z,88.12
2023-01-09T21:33:27.564Z,88.21
2023-01-09T21:35:58.922Z,88.25
2023-01-09T21:38:30.978Z,88.45
2023-01-09T21:41:22.056Z,88.51
2023-01-09T21:44:11.218Z,88.49
2023-01-09T21:46:52.694Z,88.59
2023-01-09T21:49:26.364Z,88.42
2023-01-09T21:51:58.764Z,88.26
2023-01-09T21:54:31.340Z,88.35
2023-01-09T21:57:04.178Z,88.38
2023-01-09T21:59:36.360Z,88.21
2023-01-09T22:02:07.069Z,88.18
2023-01-09T22:04:39.683Z,88.21
2023-01-09T22:07:12.220Z,87.95
2023-01-09T22:09:44.170Z,87.87
2023-01-09T22:12:16.325Z,87.67
2023-01-09T22:14:48.806Z,87.86
2023-01-09T22:17:20.956Z,87.50
2023-01-09T22:19:51.616Z,87.91
2023-01-09T22:22:23.868Z,88.02
2023-01-09T22:24:56.243Z,88.16
2023-01-09T22:27:27.064Z,88.08
2023-01-09T22:29:59.145Z,88.13
2023-01-09T22:32:29.786Z,88.01
2023-01-09T22:35:01.876Z,88.06
2023-01-09T22:37:35.130Z,87.90
2023-01-09T22:40:09.026Z,87.64
2023-01-09T22:42:41.161Z,87.75
2023-01-09T22:45:14.148Z,87.95
2023-01-09T22:47:46.883Z,87.84
2023-01-09T22:50:20.654Z,87.98
2023-01-09T22:52:53.090Z,87.95
2023-01-09T22:55:25.348Z,87.90
2023-01-09T22:57:57.624Z,87.87
2023-01-09T23:00:29.886Z,87.67
2023-01-09T23:03:00.601Z,87.62
2023-01-09T23:05:33.066Z,87.61
2023-01-09T23:08:05.650Z,87.59
2023-01-09T23:10:38.112Z,87.63
2023-01-09T23:13:10.490Z,87.95
2023-01-09T23:15:42.720Z,87.74
2023-01-09T23:18:13.286Z,87.86
2023-01-09T23:20:52.929Z,87.93
2023-01-09T23:23:27.290Z,88.00
2023-01-09T23:26:00.937Z,87.94
2023-01-09T23:28:34.100Z,88.02
2023-01-09T23:31:06.564Z,88.05
2023-01-09T23:33:38.744Z,88.21
2023-01-09T23:36:09.874Z,88.46
2023-01-09T23:38:42.689Z,88.50
2023-01-09T23:41:14.714Z,88.46
2023-01-09T23:43:47.669Z,88.31
2023-01-09T23:46:19.720Z,88.20
2023-01-09T23:48:53.063Z,88.20
2023-01-09T23:51:25.189Z,88.41
2023-01-09T23:53:55.800Z,88.62
2023-01-09T23:56:30.677Z,88.60
2023-01-09T23:59:03.140Z,88.50
